Time;durP1;ratioP1;P1;durP2;ratioP2;P2;SDS_P1;SDS_P2;PMS_P1;PMS_P2;Temp;Humidity;BMP_temperature;BMP_pressure;BME280_temperature;BME280_humidity;BME280_pressure;Samples;Min_cycle;Max_cycle;Signal;HPM_P1;HPM_P2
2023/02/15 05:05:12;;;;;;;13.38;9.55;;;-1.00;99.90;;;;;;5451057;22;20230;-64
2023/02/15 05:07:38;;;;;;;15.27;8.65;;;-1.00;99.90;;;;;;5014415;28;20572;-64
2023/02/15 05:10:04;;;;;;;8.80;7.60;;;-1.00;99.90;;;;;;5014484;28;20195;-64
2023/02/15 05:12:29;;;;;;;9.52;7.78;;;-1.10;99.90;;;;;;5014655;28;20193;-65
2023/02/15 05:14:55;;;;;;;12.27;8.60;;;-1.10;99.90;;;;;;5002309;28;20188;-64
2023/02/15 05:17:20;;;;;;;12.17;7.90;;;-1.20;99.90;;;;;;4994630;28;20165;-64
2023/02/15 05:19:46;;;;;;;15.50;8.50;;;-1.10;99.90;;;;;;4994866;28;20167;-64
2023/02/15 05:22:12;;;;;;;12.13;7.87;;;-1.10;99.90;;;;;;4994536;28;20167;-64
2023/02/15 05:30:11;;;;;;;14.57;8.18;;;-1.20;99.90;;;;;;4994405;28;20267;-64
2023/02/15 05:32:39;;;;;;;9.82;8.93;;;-1.20;99.90;;;;;;4994438;28;20173;-64
2023/02/15 05:35:06;;;;;;;12.68;8.23;;;-1.20;99.90;;;;;;4991872;28;20189;-64
2023/02/15 05:37:32;;;;;;;14.02;7.97;;;-1.20;99.90;;;;;;4992899;28;20179;-64
2023/02/15 05:39:57;;;;;;;13.07;9.37;;;-1.20;99.90;;;;;;4994167;28;20221;-64
2023/02/15 05:42:23;;;;;;;13.10;7.07;;;-1.10;99.90;;;;;;4994478;28;20187;-64
2023/02/15 05:44:48;;;;;;;13.10;8.43;;;-1.10;99.90;;;;;;4993945;28;20607;-63
2023/02/15 05:47:14;;;;;;;11.00;7.27;;;-1.10;99.90;;;;;;4994019;28;20202;-67
2023/02/15 05:49:39;;;;;;;14.97;7.17;;;-1.10;99.90;;;;;;4992923;28;20193;-63
2023/02/15 05:52:05;;;;;;;14.03;7.97;;;-1.10;99.90;;;;;;4994376;28;20204;-65
2023/02/15 05:54:31;;;;;;;14.83;8.80;;;-1.10;99.90;;;;;;4993236;28;20234;-64
2023/02/15 05:56:56;;;;;;;13.67;7.93;;;-1.10;99.90;;;;;;4993939;28;20255;-64
2023/02/15 05:59:22;;;;;;;11.87;8.43;;;-1.10;99.90;;;;;;4993678;28;20201;-65
2023/02/15 06:01:48;;;;;;;13.97;9.60;;;-1.20;99.90;;;;;;4993689;28;20222;-64
2023/02/15 06:04:13;;;;;;;11.80;7.83;;;-1.20;99.90;;;;;;4993689;28;20547;-64
2023/02/15 06:06:39;;;;;;;11.37;6.73;;;-1.30;99.90;;;;;;5007527;28;20207;-64
2023/02/15 06:09:04;;;;;;;9.93;7.90;;;-1.40;99.90;;;;;;4997507;28;20178;-64
2023/02/15 06:11:30;;;;;;;9.43;8.47;;;-1.30;99.90;;;;;;4982863;28;20200;-65
2023/02/15 06:13:56;;;;;;;9.37;6.80;;;-1.30;99.90;;;;;;4976859;28;20701;-64
2023/02/15 06:16:22;;;;;;;10.07;8.37;;;-1.40;99.90;;;;;;4975557;28;20170;-64
2023/02/15 06:18:47;;;;;;;10.98;8.32;;;-1.30;99.90;;;;;;4975322;28;20172;-64
2023/02/15 06:21:13;;;;;;;12.70;7.97;;;-1.30;99.90;;;;;;4988898;28;20642;-65
2023/02/15 06:23:39;;;;;;;9.70;8.80;;;-1.30;99.90;;;;;;4973888;28;20173;-64
2023/02/15 06:26:04;;;;;;;12.57;8.37;;;-1.20;99.90;;;;;;4981072;28;20976;-64
2023/02/15 06:28:30;;;;;;;12.67;7.20;;;-1.20;99.90;;;;;;4993812;28;20178;-64
2023/02/15 06:30:56;;;;;;;15.83;7.83;;;-1.10;99.90;;;;;;4993693;28;20198;-64
2023/02/15 06:33:22;;;;;;;12.27;7.20;;;-1.10;99.90;;;;;;4993247;28;20164;-64
2023/02/15 06:35:47;;;;;;;13.02;8.63;;;-1.00;99.90;;;;;;4996067;28;20218;-67
2023/02/15 06:38:14;;;;;;;13.83;9.27;;;-1.00;99.90;;;;;;4989421;28;20638;-64
2023/02/15 06:40:42;;;;;;;15.77;8.45;;;-0.90;99.90;;;;;;4990892;28;20286;-64
2023/02/15 06:43:08;;;;;;;14.43;9.95;;;-0.90;99.90;;;;;;4996982;28;20178;-65
2023/02/15 06:45:33;;;;;;;17.17;11.07;;;-0.90;99.90;;;;;;4997297;28;20195;-64
2023/02/15 06:47:59;;;;;;;19.40;8.40;;;-0.80;99.90;;;;;;4988778;28;20193;-63
2023/02/15 06:50:25;;;;;;;14.57;9.20;;;-0.80;99.90;;;;;;4983549;28;20207;-64
2023/02/15 06:52:58;;;;;;;12.47;8.50;;;-0.80;99.90;;;;;;4996840;28;20178;-64
2023/02/15 06:55:25;;;;;;;15.93;8.45;;;-0.80;99.90;;;;;;4996687;28;20702;-65
2023/02/15 06:57:50;;;;;;;10.50;8.57;;;-0.80;99.90;;;;;;4996936;28;20635;-63
2023/02/15 07:00:17;;;;;;;14.90;8.53;;;-0.80;99.90;;;;;;4996723;28;20180;-63
2023/02/15 07:02:43;;;;;;;9.93;8.88;;;-0.80;99.90;;;;;;4996716;28;20168;-64
2023/02/15 07:05:09;;;;;;;15.00;11.50;;;-0.70;99.90;;;;;;4993828;28;20214;-64
2023/02/15 07:07:35;;;;;;;21.37;11.13;;;-0.70;99.90;;;;;;4995982;28;20412;-63
2023/02/15 07:10:00;;;;;;;12.45;10.07;;;-0.60;99.90;;;;;;4996150;28;20684;-65
2023/02/15 07:12:41;;;;;;;12.47;9.10;;;-0.60;99.90;;;;;;4996751;28;20214;-64
2023/02/15 07:15:12;;;;;;;25.08;9.43;;;-0.60;99.90;;;;;;4996555;28;20206;-64
2023/02/15 07:17:37;;;;;;;11.68;8.05;;;-0.50;99.90;;;;;;4995801;28;20175;-64
2023/02/15 07:20:12;;;;;;;17.63;10.70;;;-0.40;99.90;;;;;;4994577;28;20645;-63
2023/02/15 07:22:38;;;;;;;18.27;8.95;;;-0.40;99.90;;;;;;4991011;28;20186;-63
2023/02/15 07:25:05;;;;;;;19.10;10.57;;;-0.30;99.90;;;;;;4975375;28;20210;-62
2023/02/15 07:27:32;;;;;;;13.75;9.63;;;-0.30;99.90;;;;;;4988743;28;20433;-63
2023/02/15 07:29:57;;;;;;;16.42;9.50;;;-0.30;99.90;;;;;;4996255;28;20305;-63
2023/02/15 07:32:23;;;;;;;12.60;9.03;;;-0.20;99.90;;;;;;4995746;28;20211;-62
2023/02/15 07:34:49;;;;;;;18.30;9.50;;;-0.20;99.90;;;;;;4996033;28;20425;-61
2023/02/15 07:37:14;;;;;;;18.63;11.53;;;-0.10;99.90;;;;;;4991730;28;20203;-62
2023/02/15 07:39:40;;;;;;;15.70;10.60;;;-0.10;99.90;;;;;;4996203;28;20302;-62
2023/02/15 07:42:05;;;;;;;15.30;10.43;;;0.00;99.90;;;;;;4995489;28;20183;-62
2023/02/15 07:44:31;;;;;;;17.73;10.43;;;0.00;99.90;;;;;;4995678;28;20660;-61
2023/02/15 07:46:56;;;;;;;16.67;11.03;;;0.00;99.90;;;;;;4994980;28;20179;-61
2023/02/15 07:49:22;;;;;;;14.43;9.50;;;0.10;99.90;;;;;;4996369;28;20537;-61
2023/02/15 07:51:48;;;;;;;18.08;9.40;;;0.10;99.90;;;;;;4996420;28;20182;-62
2023/02/15 07:54:14;;;;;;;17.90;10.13;;;0.10;99.90;;;;;;4995744;28;20188;-61
2023/02/15 07:56:39;;;;;;;16.27;10.53;;;0.10;99.90;;;;;;4996090;28;20175;-61
2023/02/15 07:59:05;;;;;;;19.20;11.00;;;0.20;99.90;;;;;;4996086;28;20406;-62
2023/02/15 08:01:34;;;;;;;17.10;10.53;;;0.20;99.90;;;;;;4995974;28;20176;-62
2023/02/15 08:04:01;;;;;;;17.83;9.73;;;0.10;99.90;;;;;;4995421;28;20691;-62
2023/02/15 08:06:29;;;;;;;14.45;11.52;;;0.20;99.90;;;;;;4995940;28;20191;-62
2023/02/15 08:08:54;;;;;;;20.27;10.65;;;0.30;99.90;;;;;;4996112;28;20219;-62
2023/02/15 08:11:37;;;;;;;17.10;11.17;;;0.50;99.90;;;;;;4995556;28;20199;-62
2023/02/15 08:14:13;;;;;;;10.70;9.20;;;0.50;99.90;;;;;;4995305;28;20426;-62
2023/02/15 08:17:05;;;;;;;18.10;10.07;;;0.60;99.90;;;;;;4995744;28;20175;-62
2023/02/15 08:19:32;;;;;;;19.02;9.73;;;0.70;99.90;;;;;;4993647;28;20188;-63
2023/02/15 08:22:01;;;;;;;16.80;9.55;;;0.60;99.90;;;;;;4995404;28;20541;-63
2023/02/15 08:24:29;;;;;;;16.92;10.27;;;0.60;99.90;;;;;;4995201;28;20641;-64
2023/02/15 08:26:56;;;;;;;13.27;8.38;;;0.60;99.90;;;;;;4995635;28;20179;-63
2023/02/15 08:29:29;;;;;;;15.30;9.48;;;0.60;99.90;;;;;;4995580;28;20178;-62
2023/02/15 08:32:04;;;;;;;13.30;9.35;;;0.60;99.90;;;;;;4995430;28;20174;-63
2023/02/15 08:34:35;;;;;;;15.57;8.25;;;0.60;99.90;;;;;;4993678;28;20190;-63
2023/02/15 08:37:02;;;;;;;16.40;12.00;;;0.50;99.90;;;;;;4995236;28;20633;-63
2023/02/15 08:39:28;;;;;;;19.55;11.82;;;0.50;99.90;;;;;;4995379;28;20211;-63
2023/02/15 08:41:54;;;;;;;14.00;9.68;;;0.40;99.90;;;;;;4995360;28;20246;-63
2023/02/15 08:44:20;;;;;;;15.03;10.17;;;0.50;99.90;;;;;;4994791;28;20673;-63
2023/02/15 08:46:47;;;;;;;15.20;9.00;;;0.70;99.90;;;;;;4995190;28;20405;-63
2023/02/15 08:49:17;;;;;;;15.73;9.38;;;0.90;99.90;;;;;;4995152;28;20172;-63
2023/02/15 08:51:43;;;;;;;17.83;10.45;;;1.10;99.90;;;;;;4995114;28;20199;-63
2023/02/15 08:54:12;;;;;;;11.00;9.90;;;1.20;99.90;;;;;;4994623;28;20206;-63
2023/02/15 08:56:40;;;;;;;17.05;9.48;;;1.20;99.90;;;;;;4987265;28;20179;-63
2023/02/15 08:59:07;;;;;;;12.63;8.73;;;1.10;99.90;;;;;;4975018;28;20190;-63
2023/02/15 09:01:34;;;;;;;13.30;9.52;;;1.00;99.90;;;;;;4994501;28;20171;-63
2023/02/15 09:04:02;;;;;;;12.18;8.65;;;1.00;99.90;;;;;;4994302;28;20191;-61
2023/02/15 09:06:28;;;;;;;11.55;8.90;;;1.00;99.90;;;;;;4992430;28;20191;-62
2023/02/15 09:08:54;;;;;;;11.95;8.85;;;1.00;99.90;;;;;;4988466;28;20207;-63
2023/02/15 09:11:24;;;;;;;11.93;7.82;;;1.10;99.90;;;;;;4975270;28;20720;-62
2023/02/15 09:13:53;;;;;;;10.70;8.52;;;1.10;99.90;;;;;;4974414;28;20697;-62
2023/02/15 09:16:18;;;;;;;12.25;8.80;;;1.20;99.90;;;;;;4975501;28;20175;-63
2023/02/15 09:18:44;;;;;;;16.13;10.00;;;1.30;99.90;;;;;;4975164;28;20195;-65
2023/02/15 09:21:15;;;;;;;13.77;8.53;;;1.40;99.90;;;;;;4975069;28;20185;-63
2023/02/15 09:23:45;;;;;;;10.18;8.10;;;1.70;99.90;;;;;;4974661;28;20223;-63
2023/02/15 09:26:16;;;;;;;10.60;7.65;;;1.90;99.90;;;;;;4974851;28;20234;-63
2023/02/15 09:28:42;;;;;;;11.02;8.57;;;1.90;99.90;;;;;;4974803;28;20238;-62
2023/02/15 09:31:15;;;;;;;8.52;7.63;;;2.00;99.90;;;;;;4974688;28;20544;-63
2023/02/15 09:33:42;;;;;;;8.40;6.95;;;2.10;99.90;;;;;;4974410;28;20164;-63
2023/02/15 09:36:17;;;;;;;11.15;7.53;;;2.10;99.90;;;;;;4983015;28;20171;-63
2023/02/15 09:38:43;;;;;;;12.80;7.97;;;2.00;99.90;;;;;;4994017;28;20537;-63
2023/02/15 09:41:33;;;;;;;11.77;7.95;;;2.10;99.90;;;;;;4993885;28;20251;-63
2023/02/15 09:44:13;;;;;;;10.10;8.02;;;2.20;99.90;;;;;;4993677;28;20211;-64
2023/02/15 09:47:10;;;;;;;9.55;8.63;;;2.30;99.90;;;;;;4994236;28;20175;-64
2023/02/15 09:49:57;;;;;;;22.38;12.13;;;2.70;99.90;;;;;;4973478;28;20322;-64
2023/02/15 09:52:48;;;;;;;7.43;6.53;;;3.40;99.90;;;;;;4992635;28;20571;-64
2023/02/15 09:55:16;;;;;;;8.95;7.97;;;4.40;99.90;;;;;;4992508;28;20201;-64
2023/02/15 09:57:48;;;;;;;12.27;7.65;;;5.30;99.90;;;;;;4993715;28;20202;-64
2023/02/15 10:00:34;;;;;;;8.23;7.33;;;6.20;99.90;;;;;;4993902;28;20201;-65
2023/02/15 10:03:12;;;;;;;7.83;7.03;;;7.30;99.90;;;;;;4993737;28;20464;-65
2023/02/15 10:06:10;;;;;;;8.03;7.20;;;8.20;99.90;;;;;;4993667;28;20529;-65
2023/02/15 10:09:00;;;;;;;10.53;7.60;;;9.10;99.90;;;;;;4994158;28;20480;-65
2023/02/15 10:11:41;;;;;;;10.70;9.60;;;9.80;99.90;;;;;;4997556;28;20513;-65
2023/02/15 10:14:15;;;;;;;9.93;8.90;;;10.30;98.90;;;;;;4997486;28;20775;-65
2023/02/15 10:17:11;;;;;;;10.00;8.97;;;10.60;98.60;;;;;;4997974;28;20410;-65
2023/02/15 10:19:59;;;;;;;10.90;9.00;;;11.00;96.10;;;;;;4986302;28;20465;-65
2023/02/15 10:22:28;;;;;;;10.73;8.87;;;11.40;94.80;;;;;;4997631;28;20777;-64
2023/02/15 10:25:21;;;;;;;14.40;9.63;;;11.50;94.70;;;;;;4997070;28;20430;-64
2023/02/15 10:27:49;;;;;;;10.40;8.87;;;11.70;93.60;;;;;;4997527;28;20407;-62
2023/02/15 10:30:20;;;;;;;10.63;9.53;;;11.60;93.60;;;;;;4996007;28;20821;-65
2023/02/15 10:32:54;;;;;;;11.63;8.70;;;11.70;93.50;;;;;;4996817;28;20414;-66
2023/02/15 10:35:29;;;;;;;13.47;10.43;;;11.80;93.30;;;;;;4997130;28;20488;-66
2023/02/15 10:38:08;;;;;;;12.73;10.90;;;12.00;94.10;;;;;;4996115;28;20766;-66
2023/02/15 10:40:37;;;;;;;13.10;9.80;;;12.50;94.10;;;;;;4997436;28;20421;-66
2023/02/15 10:43:22;;;;;;;11.80;9.47;;;12.80;92.30;;;;;;4996975;28;20439;-66
2023/02/15 10:46:17;;;;;;;16.60;11.50;;;12.80;92.20;;;;;;4997057;28;21236;-65
2023/02/15 10:48:51;;;;;;;12.13;10.60;;;12.60;92.30;;;;;;4997212;28;20420;-66
2023/02/15 10:51:49;;;;;;;11.80;9.40;;;12.60;92.30;;;;;;4995728;28;20467;-65
2023/02/15 10:54:28;;;;;;;12.90;10.27;;;12.60;92.30;;;;;;4996249;28;20433;-65
2023/02/15 10:57:10;;;;;;;13.17;9.50;;;12.70;91.80;;;;;;4988977;28;20415;-66
2023/02/15 10:59:55;;;;;;;31.73;11.60;;;12.80;91.40;;;;;;4994586;28;20397;-66
2023/02/15 11:02:49;;;;;;;12.07;9.93;;;12.70;91.80;;;;;;4996716;28;20454;-65
2023/02/15 11:05:35;;;;;;;11.00;9.23;;;12.40;91.50;;;;;;4996866;28;20919;-66
2023/02/15 11:08:05;;;;;;;10.73;9.63;;;12.30;92.80;;;;;;4997023;28;20377;-66
2023/02/15 11:10:52;;;;;;;10.03;9.00;;;12.50;92.40;;;;;;4996370;28;20458;-67
2023/02/15 11:13:21;;;;;;;10.53;9.07;;;12.50;92.90;;;;;;4996577;28;20382;-66
2023/02/15 11:16:01;;;;;;;9.40;7.90;;;12.70;92.60;;;;;;4995848;28;20569;-65
2023/02/15 11:18:30;;;;;;;9.43;8.53;;;12.40;92.50;;;;;;4996574;28;20418;-65
2023/02/15 11:21:02;;;;;;;13.77;9.87;;;12.50;92.80;;;;;;4996349;28;20491;-65
2023/02/15 11:23:29;;;;;;;9.47;8.43;;;12.50;93.00;;;;;;4995891;28;20423;-65
2023/02/15 11:26:01;;;;;;;9.73;8.77;;;12.40;93.50;;;;;;4980090;28;20470;-66
2023/02/15 11:28:50;;;;;;;12.73;9.73;;;12.30;93.40;;;;;;4976926;28;20419;-65
2023/02/15 11:31:19;;;;;;;16.53;9.80;;;11.80;94.40;;;;;;4976917;28;20443;-66
2023/02/15 11:33:51;;;;;;;12.93;9.70;;;11.00;95.30;;;;;;4977093;28;20412;-63
2023/02/15 11:36:26;;;;;;;13.97;9.80;;;10.30;96.40;;;;;;4988154;28;20394;-62
2023/02/15 11:39:01;;;;;;;11.10;8.70;;;9.60;98.40;;;;;;4995874;28;20425;-63
2023/02/15 11:41:31;;;;;;;12.95;10.75;;;9.00;99.70;;;;;;4996296;28;20409;-66
2023/02/15 11:44:08;;;;;;;8.13;7.38;;;8.60;99.90;;;;;;4967791;28;20217;-68
2023/02/15 11:46:34;;;;;;;11.45;8.85;;;8.30;99.90;;;;;;4990770;28;20623;-63
2023/02/15 11:49:00;;;;;;;11.23;8.83;;;8.00;99.90;;;;;;4996134;28;20267;-63
2023/02/15 11:51:27;;;;;;;8.53;7.27;;;7.90;99.90;;;;;;4995728;28;20813;-63
2023/02/15 11:53:53;;;;;;;10.32;7.45;;;7.80;99.90;;;;;;4995274;28;20257;-64
2023/02/15 11:56:24;;;;;;;13.17;8.03;;;7.50;99.90;;;;;;4995638;28;20183;-63
2023/02/15 11:59:01;;;;;;;13.70;9.23;;;7.40;99.90;;;;;;4996165;28;20461;-64
2023/02/15 12:01:41;;;;;;;10.60;7.95;;;7.20;99.90;;;;;;4996058;28;20186;-63
2023/02/15 12:04:21;;;;;;;11.27;8.80;;;7.20;99.90;;;;;;4995611;28;20195;-64
2023/02/15 12:06:59;;;;;;;10.85;8.27;;;7.10;99.90;;;;;;4995185;28;20202;-63
2023/02/15 12:09:40;;;;;;;10.48;7.65;;;7.20;99.90;;;;;;4995895;28;20278;-63
2023/02/15 12:12:27;;;;;;;13.25;10.50;;;7.20;99.90;;;;;;4995713;28;20179;-64
2023/02/15 12:14:55;;;;;;;13.18;9.23;;;7.30;99.90;;;;;;4995351;28;20191;-63
2023/02/15 12:17:23;;;;;;;13.55;9.38;;;7.30;99.90;;;;;;4994165;28;20172;-63
2023/02/15 12:19:52;;;;;;;12.88;9.20;;;7.40;99.90;;;;;;4994458;28;20179;-63
2023/02/15 12:22:32;;;;;;;10.32;9.05;;;7.40;99.90;;;;;;4976314;28;20190;-64
2023/02/15 12:25:04;;;;;;;12.00;8.43;;;7.40;99.90;;;;;;4974474;28;20210;-63
2023/02/15 12:27:32;;;;;;;10.38;9.27;;;7.50;99.90;;;;;;4976056;28;20258;-61
2023/02/15 12:30:02;;;;;;;9.63;8.27;;;7.60;99.90;;;;;;4975820;28;20192;-62
2023/02/15 12:32:33;;;;;;;9.63;7.80;;;7.60;99.90;;;;;;4975569;28;20263;-64
2023/02/15 12:35:21;;;;;;;12.57;9.75;;;7.70;99.90;;;;;;4978666;28;20459;-62
2023/02/15 12:38:03;;;;;;;10.63;8.40;;;7.70;99.90;;;;;;4995032;28;20235;-63
2023/02/15 12:40:33;;;;;;;11.60;8.38;;;7.80;99.90;;;;;;4995174;28;20186;-64
2023/02/15 12:42:59;;;;;;;9.05;8.15;;;7.80;99.90;;;;;;4995098;28;20209;-63
2023/02/15 12:45:33;;;;;;;9.90;7.07;;;7.80;99.90;;;;;;4995262;28;20576;-63
2023/02/15 12:48:20;;;;;;;9.35;8.02;;;7.80;99.90;;;;;;4994981;28;20186;-63
2023/02/15 12:50:50;;;;;;;11.32;8.98;;;7.80;99.90;;;;;;4993895;28;20203;-63
2023/02/15 12:53:22;;;;;;;12.00;8.50;;;7.90;99.90;;;;;;4994626;28;20620;-63
2023/02/15 12:55:51;;;;;;;11.30;8.57;;;8.00;99.90;;;;;;4994966;28;20195;-64
2023/02/15 12:58:20;;;;;;;12.05;8.73;;;8.00;99.90;;;;;;4995146;28;20581;-63
2023/02/15 13:00:46;;;;;;;13.05;9.18;;;8.10;99.90;;;;;;4995182;28;20207;-65
2023/02/15 13:03:21;;;;;;;11.30;10.05;;;8.10;99.90;;;;;;4994399;28;20172;-64
2023/02/15 13:05:54;;;;;;;14.27;10.60;;;8.10;99.90;;;;;;4994336;28;20684;-64
2023/02/15 13:08:33;;;;;;;11.48;8.75;;;8.20;99.90;;;;;;4994867;28;20178;-65
2023/02/15 13:11:09;;;;;;;12.23;8.55;;;8.20;99.90;;;;;;4994616;28;20198;-62
2023/02/15 13:13:56;;;;;;;14.85;10.80;;;8.20;99.90;;;;;;4994329;28;20160;-63
2023/02/15 13:16:34;;;;;;;8.75;7.50;;;8.20;99.90;;;;;;4994093;28;20183;-62
2023/02/15 13:19:17;;;;;;;13.73;10.23;;;8.30;99.90;;;;;;4994430;28;20175;-63
2023/02/15 13:21:49;;;;;;;11.27;9.73;;;8.40;99.90;;;;;;4994740;28;20175;-64
2023/02/15 13:24:23;;;;;;;11.98;9.80;;;8.40;99.90;;;;;;4994184;28;20550;-64
2023/02/15 13:26:49;;;;;;;8.90;7.97;;;8.50;99.90;;;;;;4994540;28;20185;-63
2023/02/15 13:29:20;;;;;;;12.80;10.10;;;8.60;99.90;;;;;;4994596;28;20179;-64
2023/02/15 13:31:47;;;;;;;9.48;7.57;;;8.60;99.90;;;;;;4994506;28;20509;-64
2023/02/15 13:34:19;;;;;;;10.88;7.78;;;8.60;99.90;;;;;;4993629;28;20223;-63
2023/02/15 13:37:16;;;;;;;9.75;8.57;;;8.70;99.90;;;;;;4994488;28;20168;-65
2023/02/15 13:39:51;;;;;;;13.35;9.63;;;8.70;99.90;;;;;;4994381;28;20168;-67
2023/02/15 13:42:27;;;;;;;10.40;7.78;;;8.70;99.90;;;;;;4994320;28;20166;-64
2023/02/15 13:45:01;;;;;;;9.93;7.25;;;8.70;99.90;;;;;;4992999;28;20526;-69
2023/02/15 13:47:29;;;;;;;11.23;7.75;;;8.80;99.90;;;;;;4994163;28;20200;-69
2023/02/15 13:50:23;;;;;;;10.05;8.90;;;8.90;99.90;;;;;;4994047;28;20202;-67
2023/02/15 13:53:07;;;;;;;9.57;7.65;;;9.00;99.90;;;;;;4993655;28;20183;-67
2023/02/15 13:55:57;;;;;;;10.43;9.20;;;9.10;99.90;;;;;;4994090;28;20231;-67
2023/02/15 13:58:28;;;;;;;14.40;8.98;;;9.10;99.90;;;;;;4992649;28;20262;-67
2023/02/15 14:01:10;;;;;;;9.85;8.20;;;9.20;99.90;;;;;;4994348;28;20266;-67
2023/02/15 14:03:36;;;;;;;11.65;9.45;;;9.20;99.90;;;;;;4993522;28;20942;-66
2023/02/15 14:06:05;;;;;;;12.40;8.90;;;9.20;99.90;;;;;;4993610;28;20191;-66
2023/02/15 14:09:04;;;;;;;9.07;7.57;;;9.30;99.90;;;;;;4994084;28;20184;-67
2023/02/15 14:11:58;;;;;;;8.73;7.82;;;9.40;99.90;;;;;;4994053;28;20202;-67
2023/02/15 14:14:42;;;;;;;10.38;7.75;;;9.50;99.90;;;;;;4993357;28;20187;-67
2023/02/15 14:17:28;;;;;;;13.30;7.75;;;9.50;99.90;;;;;;4993809;28;20567;-68
2023/02/15 14:19:59;;;;;;;9.68;8.05;;;9.60;99.90;;;;;;4993915;28;20697;-66
2023/02/15 14:22:33;;;;;;;9.13;8.20;;;9.70;99.90;;;;;;4993696;28;20226;-66
2023/02/15 14:25:17;;;;;;;8.00;6.95;;;9.70;99.90;;;;;;4993402;28;20206;-66
2023/02/15 14:28:03;;;;;;;10.88;8.93;;;9.80;99.90;;;;;;4993942;28;20184;-67
2023/02/15 14:30:34;;;;;;;8.70;7.75;;;9.90;99.90;;;;;;4993630;28;20213;-67
2023/02/15 14:33:07;;;;;;;8.10;7.22;;;9.90;99.90;;;;;;4992788;28;20375;-67
2023/02/15 14:35:33;;;;;;;10.77;8.70;;;9.90;99.90;;;;;;4993572;28;20242;-67
2023/02/15 14:38:14;;;;;;;8.85;7.95;;;9.90;99.90;;;;;;4993746;28;20691;-67
2023/02/15 14:41:02;;;;;;;9.93;7.82;;;10.00;99.90;;;;;;4992406;28;20242;-67
2023/02/15 14:44:09;;;;;;;9.20;7.72;;;10.00;99.90;;;;;;4993430;28;20567;-67
2023/02/15 14:46:56;;;;;;;10.77;8.48;;;10.00;99.90;;;;;;4988334;28;20176;-67
2023/02/15 14:49:25;;;;;;;10.73;8.82;;;9.90;99.90;;;;;;4993666;28;20237;-67
2023/02/15 14:51:51;;;;;;;11.70;9.52;;;10.00;99.90;;;;;;4992115;28;20249;-67
2023/02/15 14:54:17;;;;;;;12.33;8.53;;;10.00;99.90;;;;;;4991887;28;20191;-67
2023/02/15 14:56:46;;;;;;;10.57;8.27;;;9.90;99.90;;;;;;4994574;28;20264;-67
2023/02/15 14:59:13;;;;;;;10.48;8.45;;;9.90;99.90;;;;;;4996106;28;20176;-67
2023/02/15 15:01:40;;;;;;;9.45;8.30;;;10.00;99.90;;;;;;4996905;28;20182;-67
2023/02/15 15:04:22;;;;;;;13.50;8.80;;;9.90;99.90;;;;;;4995575;28;20206;-67
2023/02/15 15:07:03;;;;;;;11.50;10.35;;;10.00;99.90;;;;;;4996884;28;20197;-67
2023/02/15 15:09:31;;;;;;;10.50;9.43;;;10.00;99.90;;;;;;4997093;28;20218;-67
2023/02/15 15:12:22;;;;;;;11.15;8.90;;;10.00;99.90;;;;;;4996448;28;20226;-67
2023/02/15 15:14:48;;;;;;;10.18;9.07;;;10.00;99.90;;;;;;4996236;28;20246;-67
2023/02/15 15:17:32;;;;;;;9.88;8.57;;;10.00;99.90;;;;;;4996797;28;20682;-67
2023/02/15 15:20:01;;;;;;;15.68;10.35;;;10.00;99.90;;;;;;4996577;28;20259;-67
2023/02/15 15:22:29;;;;;;;13.00;8.80;;;10.00;99.90;;;;;;4995480;28;20311;-67
2023/02/15 15:25:46;;;;;;;12.20;9.05;;;10.00;99.90;;;;;;4994938;28;20196;-67
2023/02/15 15:28:33;;;;;;;11.50;9.80;;;10.00;99.90;;;;;;4963410;28;20193;-66
2023/02/15 15:31:26;;;;;;;9.40;8.30;;;9.90;99.90;;;;;;4996508;28;20290;-68
2023/02/15 15:34:09;;;;;;;12.95;9.13;;;9.90;99.90;;;;;;4996192;28;20527;-66
2023/02/15 15:37:13;;;;;;;13.52;9.50;;;9.90;99.90;;;;;;4996786;28;20618;-67
2023/02/15 15:40:14;;;;;;;9.55;8.23;;;9.80;99.90;;;;;;4992643;28;20274;-67
2023/02/15 15:43:16;;;;;;;10.63;7.88;;;9.70;99.90;;;;;;4965516;28;20195;-68
2023/02/15 15:45:54;;;;;;;9.35;8.45;;;9.70;99.90;;;;;;4992882;28;20261;-67
2023/02/15 15:48:36;;;;;;;11.75;9.20;;;9.60;99.90;;;;;;4996153;28;20202;-66
2023/02/15 15:51:17;;;;;;;8.75;7.22;;;9.50;99.90;;;;;;4995787;28;20323;-66
2023/02/15 15:53:48;;;;;;;9.13;8.23;;;9.40;99.90;;;;;;4995375;28;20179;-67
2023/02/15 15:56:31;;;;;;;14.57;8.32;;;9.30;99.90;;;;;;4996107;28;20630;-67
2023/02/15 15:59:04;;;;;;;14.13;9.43;;;9.30;99.90;;;;;;4994672;28;20187;-67
2023/02/15 16:01:35;;;;;;;9.70;7.80;;;9.20;99.90;;;;;;4996028;28;20274;-68
2023/02/15 16:04:01;;;;;;;11.52;9.52;;;9.10;99.90;;;;;;4995492;28;20233;-65
2023/02/15 16:06:36;;;;;;;12.83;7.90;;;8.90;99.90;;;;;;4994467;28;20219;-64
2023/02/15 16:09:18;;;;;;;11.40;9.63;;;8.90;99.90;;;;;;4993853;28;20425;-70
2023/02/15 16:11:47;;;;;;;13.93;10.13;;;8.80;99.90;;;;;;4995815;28;20195;-67
2023/02/15 16:14:24;;;;;;;18.23;11.18;;;8.70;99.90;;;;;;4994950;28;20234;-66
2023/02/15 16:16:53;;;;;;;11.70;10.50;;;8.60;99.90;;;;;;4995271;28;20186;-65
2023/02/15 16:19:24;;;;;;;12.55;10.07;;;8.40;99.90;;;;;;4994219;28;20171;-65
2023/02/15 16:21:50;;;;;;;9.80;8.25;;;8.40;99.90;;;;;;4995909;28;20656;-65
2023/02/15 16:24:33;;;;;;;9.93;8.80;;;8.30;99.90;;;;;;4994687;28;20226;-66
2023/02/15 16:27:11;;;;;;;14.57;11.57;;;8.20;99.90;;;;;;4995422;28;20213;-65
2023/02/15 16:29:36;;;;;;;13.13;10.40;;;8.00;99.90;;;;;;4995613;28;20178;-63
2023/02/15 16:32:05;;;;;;;10.80;9.70;;;7.90;99.90;;;;;;4995052;28;20707;-68
2023/02/15 16:34:32;;;;;;;11.43;9.02;;;7.80;99.90;;;;;;4994886;28;20203;-64
2023/02/15 16:37:18;;;;;;;12.60;9.32;;;7.70;99.90;;;;;;4995377;28;20234;-64
2023/02/15 16:39:45;;;;;;;12.38;9.55;;;7.70;99.90;;;;;;4995002;28;20167;-63
2023/02/15 16:42:12;;;;;;;16.80;10.05;;;7.50;99.90;;;;;;4995148;28;20198;-62
2023/02/15 16:44:40;;;;;;;14.13;9.70;;;7.40;99.90;;;;;;4994890;28;20202;-63
2023/02/15 16:47:29;;;;;;;14.85;10.25;;;7.30;99.90;;;;;;4995204;28;20229;-64
2023/02/15 16:49:59;;;;;;;13.98;10.85;;;7.20;99.90;;;;;;4994855;28;20177;-62
2023/02/15 16:52:27;;;;;;;17.00;10.10;;;7.10;99.90;;;;;;4995303;28;20171;-64
2023/02/15 16:55:06;;;;;;;17.48;10.48;;;7.10;99.90;;;;;;4992795;28;20688;-64
2023/02/15 16:57:42;;;;;;;15.45;10.70;;;6.90;99.90;;;;;;4992722;28;20183;-64
2023/02/15 17:00:22;;;;;;;19.10;12.00;;;6.90;99.90;;;;;;4994098;28;20187;-65
2023/02/15 17:03:05;;;;;;;20.90;11.77;;;6.80;99.90;;;;;;4993454;28;20187;-64
2023/02/15 17:05:42;;;;;;;17.83;11.25;;;6.70;99.90;;;;;;4993743;28;20357;-64
2023/02/15 17:08:30;;;;;;;19.05;12.98;;;6.60;99.90;;;;;;4994217;28;20640;-63
2023/02/15 17:10:58;;;;;;;15.60;10.15;;;6.60;99.90;;;;;;4994116;28;20278;-60
2023/02/15 17:13:25;;;;;;;15.68;10.80;;;6.50;99.90;;;;;;4993808;28;20167;-62
2023/02/15 17:16:00;;;;;;;22.05;13.35;;;6.50;99.90;;;;;;4993855;28;20206;-64
2023/02/15 17:18:32;;;;;;;14.70;10.82;;;6.40;99.90;;;;;;4993388;28;20576;-64
2023/02/15 17:21:01;;;;;;;14.55;10.60;;;6.30;99.90;;;;;;5002681;28;20278;-60
2023/02/15 17:23:45;;;;;;;21.00;12.77;;;6.30;99.90;;;;;;5013049;28;20537;-61
2023/02/15 17:26:22;;;;;;;14.00;10.43;;;6.20;99.90;;;;;;5013617;28;20523;-61
2023/02/15 17:28:58;;;;;;;13.85;10.60;;;6.20;99.90;;;;;;5013536;28;20179;-61
2023/02/15 17:31:30;;;;;;;21.42;12.23;;;6.20;99.90;;;;;;5013114;28;20207;-62
2023/02/15 17:33:58;;;;;;;16.00;10.70;;;6.10;99.90;;;;;;5001796;28;20208;-62
2023/02/15 17:36:29;;;;;;;17.23;12.10;;;6.00;99.90;;;;;;4993558;28;20225;-62
2023/02/15 17:38:57;;;;;;;15.55;9.95;;;6.00;99.90;;;;;;4993852;28;20171;-63
2023/02/15 17:41:24;;;;;;;17.02;10.13;;;5.90;99.90;;;;;;4993678;28;20176;-62
2023/02/15 17:43:50;;;;;;;20.90;12.27;;;5.90;99.90;;;;;;4992972;28;20214;-62
2023/02/15 17:46:18;;;;;;;18.30;11.97;;;5.80;99.90;;;;;;4992277;28;20175;-62
2023/02/15 17:48:46;;;;;;;17.50;13.10;;;5.80;99.90;;;;;;4994099;28;20604;-64
2023/02/15 17:51:13;;;;;;;17.85;10.48;;;5.70;99.90;;;;;;4993356;28;20205;-61
2023/02/15 17:53:40;;;;;;;14.77;11.35;;;5.70;99.90;;;;;;4993117;28;20210;-63
2023/02/15 17:56:11;;;;;;;11.38;9.32;;;5.70;99.90;;;;;;4993732;28;20171;-62
2023/02/15 17:58:39;;;;;;;17.70;11.98;;;5.60;99.90;;;;;;4993386;28;20183;-63
2023/02/15 18:12:23;;;;;;;20.10;13.93;;;5.40;99.90;;;;;;4992452;28;20250;-64
2023/02/15 18:14:49;;;;;;;17.77;13.20;;;5.40;99.90;;;;;;4987242;28;20199;-63
2023/02/15 18:17:17;;;;;;;20.83;13.65;;;5.30;99.90;;;;;;4993129;28;20622;-65
2023/02/15 18:19:44;;;;;;;12.75;9.52;;;5.30;99.90;;;;;;4993166;28;20540;-62
2023/02/15 18:22:20;;;;;;;16.15;11.80;;;5.30;99.90;;;;;;4993349;28;20184;-61
2023/02/15 18:24:47;;;;;;;14.73;11.80;;;5.20;99.90;;;;;;4991354;28;20303;-66
2023/02/15 18:27:14;;;;;;;13.15;10.75;;;5.20;99.90;;;;;;4989196;28;20173;-63
2023/02/15 18:29:40;;;;;;;18.02;11.02;;;5.20;99.90;;;;;;4973538;28;20299;-63
2023/02/15 18:32:23;;;;;;;16.17;12.33;;;5.20;99.90;;;;;;4976481;28;20207;-63
2023/02/15 18:34:49;;;;;;;15.02;11.55;;;5.20;99.90;;;;;;4976544;28;20781;-64